sensor_id;sensor_type;location;lat;lon;timestamp;pressure;altitude;pressure_sealevel;temperature;humidity
54042;BME280;41156;51.508;5.406;2023-07-08T00:00:30;101499.50;;;21.57;55.83
54042;BME280;41156;51.508;5.406;2023-07-08T00:03:30;101500.56;;;21.51;55.76
54042;BME280;41156;51.508;5.406;2023-07-08T00:06:30;101497.25;;;21.43;56.21
54042;BME280;41156;51.508;5.406;2023-07-08T00:09:31;101491.69;;;21.33;56.67
54042;BME280;41156;51.508;5.406;2023-07-08T00:12:31;101494.44;;;21.28;56.36
54042;BME280;41156;51.508;5.406;2023-07-08T00:15:32;101492.78;;;21.22;57.20
54042;BME280;41156;51.508;5.406;2023-07-08T00:18:33;101486.72;;;21.15;57.52
54042;BME280;41156;51.508;5.406;2023-07-08T00:21:33;101485.31;;;21.07;57.66
54042;BME280;41156;51.508;5.406;2023-07-08T00:24:33;101487.75;;;20.98;58.12
54042;BME280;41156;51.508;5.406;2023-07-08T00:27:34;101479.50;;;20.93;58.46
54042;BME280;41156;51.508;5.406;2023-07-08T00:30:34;101484.41;;;20.86;58.67
54042;BME280;41156;51.508;5.406;2023-07-08T00:33:34;101483.84;;;20.79;58.60
54042;BME280;41156;51.508;5.406;2023-07-08T00:36:35;101480.78;;;20.70;59.49
54042;BME280;41156;51.508;5.406;2023-07-08T00:39:35;101477.19;;;20.64;59.72
54042;BME280;41156;51.508;5.406;2023-07-08T00:42:35;101475.19;;;20.60;59.70
54042;BME280;41156;51.508;5.406;2023-07-08T00:45:43;101473.28;;;20.55;62.18
54042;BME280;41156;51.508;5.406;2023-07-08T00:48:47;101467.47;;;20.51;59.87
54042;BME280;41156;51.508;5.406;2023-07-08T00:51:48;101468.56;;;20.45;60.29
54042;BME280;41156;51.508;5.406;2023-07-08T00:54:50;101471.81;;;20.42;61.14
54042;BME280;41156;51.508;5.406;2023-07-08T00:57:50;101472.06;;;20.36;61.23
54042;BME280;41156;51.508;5.406;2023-07-08T01:00:53;101466.28;;;20.32;62.19
54042;BME280;41156;51.508;5.406;2023-07-08T01:04:04;101466.25;;;20.27;63.67
54042;BME280;41156;51.508;5.406;2023-07-08T01:07:06;101465.94;;;20.23;62.04
54042;BME280;41156;51.508;5.406;2023-07-08T01:10:14;101467.00;;;20.17;65.09
54042;BME280;41156;51.508;5.406;2023-07-08T01:13:17;101472.22;;;20.13;62.05
54042;BME280;41156;51.508;5.406;2023-07-08T01:16:17;101466.41;;;20.10;62.70
54042;BME280;41156;51.508;5.406;2023-07-08T01:19:21;101464.47;;;20.05;64.60
54042;BME280;41156;51.508;5.406;2023-07-08T01:22:34;101476.22;;;20.01;64.46
54042;BME280;41156;51.508;5.406;2023-07-08T01:25:35;101472.06;;;19.98;63.44
54042;BME280;41156;51.508;5.406;2023-07-08T01:28:35;101458.06;;;19.94;63.71
54042;BME280;41156;51.508;5.406;2023-07-08T01:31:36;101465.19;;;19.90;63.60
54042;BME280;41156;51.508;5.406;2023-07-08T01:34:36;101462.97;;;19.87;63.87
54042;BME280;41156;51.508;5.406;2023-07-08T01:37:41;101461.28;;;19.86;64.50
54042;BME280;41156;51.508;5.406;2023-07-08T01:40:51;101464.00;;;19.81;66.19
54042;BME280;41156;51.508;5.406;2023-07-08T01:43:52;101457.41;;;19.77;64.24
54042;BME280;41156;51.508;5.406;2023-07-08T01:46:54;101454.91;;;19.75;64.61
54042;BME280;41156;51.508;5.406;2023-07-08T01:49:55;101461.69;;;19.73;64.33
54042;BME280;41156;51.508;5.406;2023-07-08T01:52:58;101454.59;;;19.72;64.90
54042;BME280;41156;51.508;5.406;2023-07-08T01:55:59;101450.69;;;19.68;64.47
54042;BME280;41156;51.508;5.406;2023-07-08T01:59:00;101434.50;;;19.66;64.32
54042;BME280;41156;51.508;5.406;2023-07-08T02:02:00;101445.72;;;19.65;64.94
54042;BME280;41156;51.508;5.406;2023-07-08T02:05:01;101434.75;;;19.65;64.79
54042;BME280;41156;51.508;5.406;2023-07-08T02:08:01;101431.72;;;19.61;65.22
54042;BME280;41156;51.508;5.406;2023-07-08T02:11:01;101434.16;;;19.57;65.42
54042;BME280;41156;51.508;5.406;2023-07-08T02:14:02;101428.13;;;19.55;64.97
54042;BME280;41156;51.508;5.406;2023-07-08T02:17:03;101426.97;;;19.51;65.16
54042;BME280;41156;51.508;5.406;2023-07-08T02:20:06;101430.50;;;19.47;65.17
54042;BME280;41156;51.508;5.406;2023-07-08T02:23:06;101414.84;;;19.42;65.99
54042;BME280;41156;51.508;5.406;2023-07-08T02:26:06;101418.63;;;19.36;65.85
54042;BME280;41156;51.508;5.406;2023-07-08T02:29:07;101416.41;;;19.33;65.65
54042;BME280;41156;51.508;5.406;2023-07-08T02:32:08;101411.69;;;19.28;66.60
54042;BME280;41156;51.508;5.406;2023-07-08T02:35:09;101405.34;;;19.22;66.80
54042;BME280;41156;51.508;5.406;2023-07-08T02:38:10;101393.53;;;19.17;67.19
54042;BME280;41156;51.508;5.406;2023-07-08T02:41:10;101395.31;;;19.06;67.12
54042;BME280;41156;51.508;5.406;2023-07-08T02:44:11;101400.19;;;18.99;68.08
54042;BME280;41156;51.508;5.406;2023-07-08T02:47:12;101405.63;;;18.94;67.97
54042;BME280;41156;51.508;5.406;2023-07-08T02:50:12;101402.56;;;18.90;68.13
54042;BME280;41156;51.508;5.406;2023-07-08T02:53:13;101402.22;;;18.86;68.83
54042;BME280;41156;51.508;5.406;2023-07-08T02:56:13;101403.00;;;18.82;68.60
54042;BME280;41156;51.508;5.406;2023-07-08T02:59:13;101413.59;;;18.78;69.06
54042;BME280;41156;51.508;5.406;2023-07-08T03:02:14;101414.13;;;18.75;69.16
54042;BME280;41156;51.508;5.406;2023-07-08T03:05:14;101417.38;;;18.72;69.82
54042;BME280;41156;51.508;5.406;2023-07-08T03:08:14;101430.47;;;18.70;69.48
54042;BME280;41156;51.508;5.406;2023-07-08T03:11:15;101429.91;;;18.68;69.77
54042;BME280;41156;51.508;5.406;2023-07-08T03:14:15;101418.66;;;18.64;70.12
54042;BME280;41156;51.508;5.406;2023-07-08T03:17:15;101422.13;;;18.60;70.22
54042;BME280;41156;51.508;5.406;2023-07-08T03:20:18;101418.84;;;18.58;70.26
54042;BME280;41156;51.508;5.406;2023-07-08T03:23:18;101420.19;;;18.55;70.93
54042;BME280;41156;51.508;5.406;2023-07-08T03:26:21;101423.19;;;18.54;71.85
54042;BME280;41156;51.508;5.406;2023-07-08T03:29:21;101417.09;;;18.52;70.81
54042;BME280;41156;51.508;5.406;2023-07-08T03:32:22;101418.22;;;18.51;71.14
54042;BME280;41156;51.508;5.406;2023-07-08T03:35:22;101422.53;;;18.46;70.97
54042;BME280;41156;51.508;5.406;2023-07-08T03:38:22;101417.56;;;18.43;71.62
54042;BME280;41156;51.508;5.406;2023-07-08T03:41:23;101425.19;;;18.41;71.81
54042;BME280;41156;51.508;5.406;2023-07-08T03:44:24;101424.06;;;18.37;71.82
54042;BME280;41156;51.508;5.406;2023-07-08T03:47:24;101432.50;;;18.36;72.04
54042;BME280;41156;51.508;5.406;2023-07-08T03:50:26;101430.28;;;18.33;72.45
54042;BME280;41156;51.508;5.406;2023-07-08T03:53:26;101437.31;;;18.28;72.46
54042;BME280;41156;51.508;5.406;2023-07-08T03:56:26;101444.13;;;18.26;72.29
54042;BME280;41156;51.508;5.406;2023-07-08T03:59:27;101445.47;;;18.23;72.78
54042;BME280;41156;51.508;5.406;2023-07-08T04:02:27;101442.97;;;18.22;72.91
54042;BME280;41156;51.508;5.406;2023-07-08T04:05:27;101446.81;;;18.21;73.33
54042;BME280;41156;51.508;5.406;2023-07-08T04:08:28;101438.84;;;18.19;73.22
54042;BME280;41156;51.508;5.406;2023-07-08T04:11:28;101439.91;;;18.18;73.48
54042;BME280;41156;51.508;5.406;2023-07-08T04:14:28;101450.03;;;18.18;73.65
54042;BME280;41156;51.508;5.406;2023-07-08T04:17:29;101451.09;;;18.17;73.89
54042;BME280;41156;51.508;5.406;2023-07-08T04:20:29;101449.22;;;18.17;74.02
54042;BME280;41156;51.508;5.406;2023-07-08T04:23:30;101456.56;;;18.17;74.01
54042;BME280;41156;51.508;5.406;2023-07-08T04:26:30;101456.56;;;18.17;74.39
54042;BME280;41156;51.508;5.406;2023-07-08T04:29:30;101455.25;;;18.19;74.17
54042;BME280;41156;51.508;5.406;2023-07-08T04:32:31;101444.06;;;18.21;74.50
54042;BME280;41156;51.508;5.406;2023-07-08T04:35:31;101435.63;;;18.22;74.68
54042;BME280;41156;51.508;5.406;2023-07-08T04:38:31;101437.84;;;18.25;75.13
54042;BME280;41156;51.508;5.406;2023-07-08T04:41:32;101444.22;;;18.31;74.83
54042;BME280;41156;51.508;5.406;2023-07-08T04:44:32;101434.34;;;18.30;74.88
54042;BME280;41156;51.508;5.406;2023-07-08T04:47:32;101432.19;;;18.32;75.31
54042;BME280;41156;51.508;5.406;2023-07-08T04:50:33;101438.56;;;18.38;75.52
54042;BME280;41156;51.508;5.406;2023-07-08T04:53:33;101441.59;;;18.41;75.23
54042;BME280;41156;51.508;5.406;2023-07-08T04:56:45;101435.94;;;18.48;78.77
54042;BME280;41156;51.508;5.406;2023-07-08T04:59:46;101435.75;;;18.55;75.74
54042;BME280;41156;51.508;5.406;2023-07-08T05:02:46;101436.41;;;18.62;74.96
54042;BME280;41156;51.508;5.406;2023-07-08T05:05:46;101438.69;;;18.70;75.50
54042;BME280;41156;51.508;5.406;2023-07-08T05:08:47;101442.63;;;18.79;75.34
54042;BME280;41156;51.508;5.406;2023-07-08T05:11:47;101447.13;;;18.85;75.35
54042;BME280;41156;51.508;5.406;2023-07-08T05:14:47;101440.63;;;18.92;75.51
54042;BME280;41156;51.508;5.406;2023-07-08T05:17:50;101437.69;;;18.98;76.96
54042;BME280;41156;51.508;5.406;2023-07-08T05:20:53;101435.28;;;19.02;77.21
54042;BME280;41156;51.508;5.406;2023-07-08T05:23:54;101435.59;;;19.06;75.29
54042;BME280;41156;51.508;5.406;2023-07-08T05:26:55;101437.81;;;19.09;75.40
54042;BME280;41156;51.508;5.406;2023-07-08T05:29:55;101437.59;;;19.15;75.60
54042;BME280;41156;51.508;5.406;2023-07-08T05:32:55;101431.06;;;19.21;75.14
54042;BME280;41156;51.508;5.406;2023-07-08T05:35:56;101429.50;;;19.26;75.25
54042;BME280;41156;51.508;5.406;2023-07-08T05:38:56;101429.28;;;19.32;75.15
54042;BME280;41156;51.508;5.406;2023-07-08T05:41:56;101426.41;;;19.49;74.85
54042;BME280;41156;51.508;5.406;2023-07-08T05:44:57;101428.72;;;19.63;74.21
54042;BME280;41156;51.508;5.406;2023-07-08T05:47:57;101420.53;;;19.68;74.74
54042;BME280;41156;51.508;5.406;2023-07-08T05:51:01;101434.88;;;19.75;76.52
54042;BME280;41156;51.508;5.406;2023-07-08T05:54:01;101429.72;;;19.78;74.27
54042;BME280;41156;51.508;5.406;2023-07-08T05:57:01;101432.22;;;19.85;74.34
54042;BME280;41156;51.508;5.406;2023-07-08T06:00:04;101429.00;;;19.93;75.10
54042;BME280;41156;51.508;5.406;2023-07-08T06:03:05;101429.06;;;20.04;74.22
54042;BME280;41156;51.508;5.406;2023-07-08T06:06:05;101433.25;;;20.17;74.04
54042;BME280;41156;51.508;5.406;2023-07-08T06:09:06;101436.34;;;20.25;73.62
54042;BME280;41156;51.508;5.406;2023-07-08T06:12:07;101442.44;;;20.43;73.76
54042;BME280;41156;51.508;5.406;2023-07-08T06:15:08;101441.44;;;20.59;73.34
54042;BME280;41156;51.508;5.406;2023-07-08T06:18:08;101442.91;;;20.77;72.50
54042;BME280;41156;51.508;5.406;2023-07-08T06:21:09;101445.44;;;20.89;71.52
54042;BME280;41156;51.508;5.406;2023-07-08T06:24:09;101448.75;;;21.01;71.18
54042;BME280;41156;51.508;5.406;2023-07-08T06:27:10;101439.97;;;21.10;71.22
54042;BME280;41156;51.508;5.406;2023-07-08T06:30:10;101447.16;;;21.21;70.78
54042;BME280;41156;51.508;5.406;2023-07-08T06:33:10;101447.72;;;21.33;70.12
54042;BME280;41156;51.508;5.406;2023-07-08T06:36:11;101444.75;;;21.50;69.94
54042;BME280;41156;51.508;5.406;2023-07-08T06:39:11;101445.03;;;21.64;68.95
54042;BME280;41156;51.508;5.406;2023-07-08T06:42:12;101444.47;;;21.77;69.26
54042;BME280;41156;51.508;5.406;2023-07-08T06:45:12;101444.47;;;21.88;68.00
54042;BME280;41156;51.508;5.406;2023-07-08T06:48:13;101449.97;;;21.98;67.42
54042;BME280;41156;51.508;5.406;2023-07-08T06:51:13;101456.03;;;22.05;67.38
54042;BME280;41156;51.508;5.406;2023-07-08T06:54:13;101450.75;;;22.24;67.23
54042;BME280;41156;51.508;5.406;2023-07-08T06:57:14;101449.34;;;22.42;66.32
54042;BME280;41156;51.508;5.406;2023-07-08T07:00:14;101440.78;;;22.54;65.60
54042;BME280;41156;51.508;5.406;2023-07-08T07:03:14;101444.88;;;22.67;65.62
54042;BME280;41156;51.508;5.406;2023-07-08T07:06:15;101439.03;;;22.79;65.69
54042;BME280;41156;51.508;5.406;2023-07-08T07:09:15;101433.41;;;22.99;64.57
54042;BME280;41156;51.508;5.406;2023-07-08T07:12:15;101436.66;;;23.17;64.02
54042;BME280;41156;51.508;5.406;2023-07-08T07:15:16;101431.31;;;23.31;62.86
54042;BME280;41156;51.508;5.406;2023-07-08T07:18:16;101435.63;;;23.42;62.78
54042;BME280;41156;51.508;5.406;2023-07-08T07:21:16;101442.75;;;23.48;62.41
54042;BME280;41156;51.508;5.406;2023-07-08T07:24:17;101429.66;;;23.64;61.92
54042;BME280;41156;51.508;5.406;2023-07-08T07:27:18;101435.66;;;23.71;61.33
54042;BME280;41156;51.508;5.406;2023-07-08T07:30:18;101436.69;;;23.80;60.78
54042;BME280;41156;51.508;5.406;2023-07-08T07:33:18;101436.34;;;23.92;60.63
54042;BME280;41156;51.508;5.406;2023-07-08T07:36:19;101429.59;;;24.04;60.26
54042;BME280;41156;51.508;5.406;2023-07-08T07:39:19;101437.25;;;24.12;59.61
54042;BME280;41156;51.508;5.406;2023-07-08T07:42:19;101445.06;;;24.29;59.75
54042;BME280;41156;51.508;5.406;2023-07-08T07:45:20;101444.50;;;24.56;58.84
54042;BME280;41156;51.508;5.406;2023-07-08T07:48:22;101435.72;;;24.73;58.15
54042;BME280;41156;51.508;5.406;2023-07-08T07:51:24;101437.09;;;24.94;57.96
54042;BME280;41156;51.508;5.406;2023-07-08T07:54:24;101434.06;;;25.15;57.62
54042;BME280;41156;51.508;5.406;2023-07-08T07:57:26;101426.81;;;25.38;56.84
54042;BME280;41156;51.508;5.406;2023-07-08T08:00:26;101430.13;;;25.54;56.30
54042;BME280;41156;51.508;5.406;2023-07-08T08:03:27;101434.28;;;25.71;55.65
54042;BME280;41156;51.508;5.406;2023-07-08T08:06:27;101431.50;;;25.90;55.15
54042;BME280;41156;51.508;5.406;2023-07-08T08:09:27;101430.94;;;26.07;54.35
54042;BME280;41156;51.508;5.406;2023-07-08T08:12:28;101438.94;;;26.36;54.46
54042;BME280;41156;51.508;5.406;2023-07-08T08:15:29;101436.47;;;26.48;53.32
54042;BME280;41156;51.508;5.406;2023-07-08T08:18:30;101448.09;;;26.78;53.32
54042;BME280;41156;51.508;5.406;2023-07-08T08:21:31;101442.59;;;27.37;52.08
54042;BME280;41156;51.508;5.406;2023-07-08T08:24:31;101446.38;;;27.86;51.44
54042;BME280;41156;51.508;5.406;2023-07-08T08:27:31;101446.13;;;28.37;50.13
54042;BME280;41156;51.508;5.406;2023-07-08T08:30:32;101451.19;;;28.84;49.79
54042;BME280;41156;51.508;5.406;2023-07-08T08:33:32;101449.94;;;29.33;48.89
54042;BME280;41156;51.508;5.406;2023-07-08T08:36:33;101454.50;;;29.73;47.97
54042;BME280;41156;51.508;5.406;2023-07-08T08:39:33;101451.63;;;30.08;47.47
54042;BME280;41156;51.508;5.406;2023-07-08T08:42:42;101455.59;;;30.46;44.73
54042;BME280;41156;51.508;5.406;2023-07-08T08:46:08;101456.38;;;31.06;44.24
54042;BME280;41156;51.508;5.406;2023-07-08T08:52:25;101466.69;;;31.47;43.78
54042;BME280;41156;51.508;5.406;2023-07-08T08:55:26;101459.97;;;31.69;42.65
54042;BME280;41156;51.508;5.406;2023-07-08T08:58:41;101459.88;;;31.90;37.95
54042;BME280;41156;51.508;5.406;2023-07-08T09:01:43;101466.50;;;32.19;36.44
54042;BME280;41156;51.508;5.406;2023-07-08T09:04:44;101465.78;;;32.47;41.18
54042;BME280;41156;51.508;5.406;2023-07-08T09:11:21;101468.47;;;32.56;35.63
54042;BME280;41156;51.508;5.406;2023-07-08T09:14:28;101462.44;;;32.41;37.92
54042;BME280;41156;51.508;5.406;2023-07-08T09:17:30;101452.41;;;32.53;37.46
54042;BME280;41156;51.508;5.406;2023-07-08T09:20:33;101443.56;;;32.63;38.15
54042;BME280;41156;51.508;5.406;2023-07-08T09:23:34;101443.75;;;32.82;38.32
54042;BME280;41156;51.508;5.406;2023-07-08T09:26:36;101442.44;;;32.92;38.15
54042;BME280;41156;51.508;5.406;2023-07-08T09:29:36;101450.38;;;33.03;37.87
54042;BME280;41156;51.508;5.406;2023-07-08T09:32:37;101456.25;;;33.26;37.65
54042;BME280;41156;51.508;5.406;2023-07-08T09:35:41;101449.84;;;33.25;35.72
54042;BME280;41156;51.508;5.406;2023-07-08T09:38:41;101442.59;;;33.24;36.84
54042;BME280;41156;51.508;5.406;2023-07-08T09:41:43;101445.03;;;33.38;35.76
54042;BME280;41156;51.508;5.406;2023-07-08T09:44:45;101441.34;;;33.66;36.29
54042;BME280;41156;51.508;5.406;2023-07-08T09:47:46;101427.72;;;33.92;35.09
54042;BME280;41156;51.508;5.406;2023-07-08T09:50:50;101425.31;;;34.10;34.65
54042;BME280;41156;51.508;5.406;2023-07-08T09:53:51;101432.03;;;33.90;34.47
54042;BME280;41156;51.508;5.406;2023-07-08T09:57:03;101423.97;;;33.88;33.40
54042;BME280;41156;51.508;5.406;2023-07-08T10:00:13;101428.41;;;34.05;33.59
54042;BME280;41156;51.508;5.406;2023-07-08T10:03:23;101425.53;;;34.34;34.79
54042;BME280;41156;51.508;5.406;2023-07-08T10:06:28;101426.44;;;34.38;32.18
54042;BME280;41156;51.508;5.406;2023-07-08T10:09:30;101435.03;;;34.29;33.08
54042;BME280;41156;51.508;5.406;2023-07-08T10:12:32;101426.53;;;34.09;33.90
54042;BME280;41156;51.508;5.406;2023-07-08T10:15:38;101432.13;;;34.41;31.57
54042;BME280;41156;51.508;5.406;2023-07-08T10:18:40;101432.69;;;34.66;33.68
54042;BME280;41156;51.508;5.406;2023-07-08T10:21:53;101430.91;;;34.58;30.57
54042;BME280;41156;51.508;5.406;2023-07-08T10:25:06;101432.84;;;34.54;30.48
54042;BME280;41156;51.508;5.406;2023-07-08T10:31:40;101435.69;;;34.74;29.66
54042;BME280;41156;51.508;5.406;2023-07-08T10:38:22;101425.28;;;34.58;31.36
54042;BME280;41156;51.508;5.406;2023-07-08T10:41:34;101432.31;;;34.84;30.75
54042;BME280;41156;51.508;5.406;2023-07-08T10:45:12;101436.19;;;35.15;30.66
54042;BME280;41156;51.508;5.406;2023-07-08T10:48:41;101433.59;;;35.26;30.18
54042;BME280;41156;51.508;5.406;2023-07-08T10:55:35;101449.41;;;35.73;29.88
54042;BME280;41156;51.508;5.406;2023-07-08T11:05:44;101441.41;;;35.98;27.98
54042;BME280;41156;51.508;5.406;2023-07-08T11:08:50;101434.22;;;35.78;27.59
54042;BME280;41156;51.508;5.406;2023-07-08T11:11:54;101435.16;;;35.85;29.49
54042;BME280;41156;51.508;5.406;2023-07-08T11:18:12;101438.84;;;35.89;28.42
54042;BME280;41156;51.508;5.406;2023-07-08T11:21:18;101442.72;;;36.04;26.14
54042;BME280;41156;51.508;5.406;2023-07-08T11:24:26;101433.84;;;36.02;27.84
54042;BME280;41156;51.508;5.406;2023-07-08T11:27:37;101439.28;;;35.91;26.73
54042;BME280;41156;51.508;5.406;2023-07-08T11:30:39;101440.59;;;36.21;28.11
54042;BME280;41156;51.508;5.406;2023-07-08T11:33:43;101440.72;;;36.28;27.10
54042;BME280;41156;51.508;5.406;2023-07-08T11:36:46;101435.25;;;36.39;27.31
54042;BME280;41156;51.508;5.406;2023-07-08T11:39:58;101426.66;;;36.55;26.74
54042;BME280;41156;51.508;5.406;2023-07-08T11:43:04;101420.34;;;36.65;27.41
54042;BME280;41156;51.508;5.406;2023-07-08T11:46:06;101418.72;;;36.64;28.24
54042;BME280;41156;51.508;5.406;2023-07-08T11:49:13;101413.88;;;36.88;27.34
54042;BME280;41156;51.508;5.406;2023-07-08T11:52:17;101407.13;;;36.96;26.79
54042;BME280;41156;51.508;5.406;2023-07-08T11:55:25;101410.81;;;37.03;25.46
54042;BME280;41156;51.508;5.406;2023-07-08T11:58:30;101402.03;;;37.09;26.38
54042;BME280;41156;51.508;5.406;2023-07-08T12:01:40;101404.81;;;37.05;25.98
54042;BME280;41156;51.508;5.406;2023-07-08T12:05:03;101402.25;;;37.23;26.24
54042;BME280;41156;51.508;5.406;2023-07-08T12:08:14;101409.19;;;37.33;26.04
54042;BME280;41156;51.508;5.406;2023-07-08T12:11:15;101402.91;;;37.50;26.34
54042;BME280;41156;51.508;5.406;2023-07-08T12:14:15;101396.38;;;37.80;26.33
54042;BME280;41156;51.508;5.406;2023-07-08T12:17:16;101395.38;;;38.03;26.75
54042;BME280;41156;51.508;5.406;2023-07-08T12:20:35;101395.22;;;37.85;25.33
54042;BME280;41156;51.508;5.406;2023-07-08T12:23:36;101385.59;;;37.89;26.46
54042;BME280;41156;51.508;5.406;2023-07-08T12:26:36;101385.63;;;37.93;24.83
54042;BME280;41156;51.508;5.406;2023-07-08T12:29:37;101376.81;;;38.02;26.27
54042;BME280;41156;51.508;5.406;2023-07-08T12:32:39;101377.75;;;38.13;26.09
54042;BME280;41156;51.508;5.406;2023-07-08T12:35:40;101381.13;;;38.44;26.06
54042;BME280;41156;51.508;5.406;2023-07-08T12:38:42;101376.06;;;38.64;25.70
54042;BME280;41156;51.508;5.406;2023-07-08T12:41:46;101376.22;;;38.26;23.74
54042;BME280;41156;51.508;5.406;2023-07-08T12:44:47;101370.81;;;38.10;25.21
54042;BME280;41156;51.508;5.406;2023-07-08T12:47:49;101368.91;;;38.18;25.41
54042;BME280;41156;51.508;5.406;2023-07-08T12:50:49;101372.91;;;38.17;25.51
54042;BME280;41156;51.508;5.406;2023-07-08T12:53:51;101367.34;;;38.24;24.80
54042;BME280;41156;51.508;5.406;2023-07-08T12:56:54;101365.03;;;38.41;25.00
54042;BME280;41156;51.508;5.406;2023-07-08T12:59:54;101352.56;;;38.49;25.11
54042;BME280;41156;51.508;5.406;2023-07-08T13:06:02;101367.88;;;38.48;24.32
54042;BME280;41156;51.508;5.406;2023-07-08T13:12:31;101365.44;;;38.50;23.70
54042;BME280;41156;51.508;5.406;2023-07-08T13:15:40;101369.91;;;38.51;23.60
54042;BME280;41156;51.508;5.406;2023-07-08T13:18:41;101365.84;;;38.45;24.21
54042;BME280;41156;51.508;5.406;2023-07-08T13:21:42;101368.91;;;38.18;24.43
54042;BME280;41156;51.508;5.406;2023-07-08T13:24:43;101365.41;;;38.36;24.39
54042;BME280;41156;51.508;5.406;2023-07-08T13:27:54;101369.06;;;38.47;23.60
54042;BME280;41156;51.508;5.406;2023-07-08T13:31:11;101367.00;;;38.37;23.79
54042;BME280;41156;51.508;5.406;2023-07-08T13:34:19;101371.63;;;38.74;24.27
54042;BME280;41156;51.508;5.406;2023-07-08T13:37:34;101366.84;;;38.85;23.04
54042;BME280;41156;51.508;5.406;2023-07-08T13:40:35;101359.16;;;38.75;23.91
54042;BME280;41156;51.508;5.406;2023-07-08T13:43:40;101361.66;;;38.94;23.51
54042;BME280;41156;51.508;5.406;2023-07-08T13:49:55;101363.78;;;39.26;23.37
54042;BME280;41156;51.508;5.406;2023-07-08T13:52:57;101366.56;;;39.12;23.80
54042;BME280;41156;51.508;5.406;2023-07-08T13:56:02;101361.75;;;39.16;23.75
54042;BME280;41156;51.508;5.406;2023-07-08T13:59:21;101367.00;;;39.28;23.54
54042;BME280;41156;51.508;5.406;2023-07-08T14:02:24;101364.56;;;39.16;23.86
54042;BME280;41156;51.508;5.406;2023-07-08T14:05:24;101369.34;;;39.01;24.57
54042;BME280;41156;51.508;5.406;2023-07-08T14:08:25;101366.44;;;38.86;24.44
54042;BME280;41156;51.508;5.406;2023-07-08T14:11:25;101358.34;;;38.78;23.83
54042;BME280;41156;51.508;5.406;2023-07-08T14:14:26;101357.56;;;38.81;24.21
54042;BME280;41156;51.508;5.406;2023-07-08T14:17:27;101355.88;;;38.65;23.76
54042;BME280;41156;51.508;5.406;2023-07-08T14:20:29;101357.75;;;38.40;24.68
54042;BME280;41156;51.508;5.406;2023-07-08T14:23:29;101356.72;;;38.10;24.31
54042;BME280;41156;51.508;5.406;2023-07-08T14:26:30;101367.41;;;37.83;24.94
54042;BME280;41156;51.508;5.406;2023-07-08T14:29:30;101381.38;;;37.69;24.44
54042;BME280;41156;51.508;5.406;2023-07-08T14:32:31;101384.97;;;37.66;24.37
54042;BME280;41156;51.508;5.406;2023-07-08T14:35:32;101378.13;;;37.67;24.44
54042;BME280;41156;51.508;5.406;2023-07-08T14:38:32;101387.91;;;37.76;24.26
54042;BME280;41156;51.508;5.406;2023-07-08T14:41:33;101381.91;;;37.85;24.74
54042;BME280;41156;51.508;5.406;2023-07-08T14:44:35;101389.13;;;37.79;24.33
54042;BME280;41156;51.508;5.406;2023-07-08T14:47:36;101391.91;;;37.75;24.52
54042;BME280;41156;51.508;5.406;2023-07-08T14:50:37;101392.25;;;37.70;25.07
54042;BME280;41156;51.508;5.406;2023-07-08T14:53:37;101394.19;;;37.63;24.53
54042;BME280;41156;51.508;5.406;2023-07-08T14:56:39;101395.38;;;37.62;24.72
54042;BME280;41156;51.508;5.406;2023-07-08T14:59:40;101390.94;;;37.19;24.98
54042;BME280;41156;51.508;5.406;2023-07-08T15:02:42;101385.44;;;37.00;25.31
54042;BME280;41156;51.508;5.406;2023-07-08T15:05:43;101389.50;;;36.72;25.94
54042;BME280;41156;51.508;5.406;2023-07-08T15:08:44;101383.72;;;36.61;26.04
54042;BME280;41156;51.508;5.406;2023-07-08T15:11:45;101390.78;;;36.48;26.07
54042;BME280;41156;51.508;5.406;2023-07-08T15:14:45;101379.72;;;36.36;26.09
54042;BME280;41156;51.508;5.406;2023-07-08T15:17:46;101390.09;;;36.28;27.28
54042;BME280;41156;51.508;5.406;2023-07-08T15:20:46;101395.97;;;36.19;26.84
54042;BME280;41156;51.508;5.406;2023-07-08T15:23:47;101390.53;;;36.07;27.45
54042;BME280;41156;51.508;5.406;2023-07-08T15:26:48;101394.66;;;35.90;27.75
54042;BME280;41156;51.508;5.406;2023-07-08T15:29:49;101398.88;;;35.77;27.53
54042;BME280;41156;51.508;5.406;2023-07-08T15:32:50;101396.13;;;35.61;27.89
54042;BME280;41156;51.508;5.406;2023-07-08T15:35:51;101393.81;;;35.43;27.91
54042;BME280;41156;51.508;5.406;2023-07-08T15:38:53;101391.09;;;35.27;28.27
54042;BME280;41156;51.508;5.406;2023-07-08T15:41:53;101388.38;;;35.11;28.15
54042;BME280;41156;51.508;5.406;2023-07-08T15:44:53;101396.34;;;34.90;28.65
54042;BME280;41156;51.508;5.406;2023-07-08T15:47:54;101399.19;;;34.74;29.08
54042;BME280;41156;51.508;5.406;2023-07-08T15:50:55;101410.19;;;34.63;28.95
54042;BME280;41156;51.508;5.406;2023-07-08T15:53:55;101402.41;;;34.56;30.01
54042;BME280;41156;51.508;5.406;2023-07-08T15:56:56;101407.19;;;34.56;29.99
54042;BME280;41156;51.508;5.406;2023-07-08T15:59:56;101402.41;;;34.56;29.79
54042;BME280;41156;51.508;5.406;2023-07-08T16:03:00;101403.72;;;34.62;30.23
54042;BME280;41156;51.508;5.406;2023-07-08T16:06:01;101408.72;;;34.69;30.73
54042;BME280;41156;51.508;5.406;2023-07-08T16:09:01;101409.25;;;34.59;30.99
54042;BME280;41156;51.508;5.406;2023-07-08T16:12:04;101415.72;;;34.59;31.31
54042;BME280;41156;51.508;5.406;2023-07-08T16:15:07;101415.09;;;34.50;32.00
54042;BME280;41156;51.508;5.406;2023-07-08T16:18:10;101422.56;;;34.26;31.91
54042;BME280;41156;51.508;5.406;2023-07-08T16:21:12;101414.94;;;34.27;31.89
54042;BME280;41156;51.508;5.406;2023-07-08T16:24:12;101401.56;;;34.36;32.26
54042;BME280;41156;51.508;5.406;2023-07-08T16:27:13;101395.72;;;34.45;32.17
54042;BME280;41156;51.508;5.406;2023-07-08T16:30:19;101405.50;;;34.71;32.65